Time;durP1;ratioP1;P1;durP2;ratioP2;P2;SDS_P1;SDS_P2;PMS_P1;PMS_P2;Temp;Humidity;BMP_temperature;BMP_pressure;BME280_temperature;BME280_humidity;BME280_pressure;Samples;Min_cycle;Max_cycle;Signal;HPM_P1;HPM_P2
2022/03/04 00:00:54;;;;;;;10.10;7.15;;;;;;;;;;5095143;28;20020;-67
2022/03/04 00:03:20;;;;;;;14.35;7.20;;;;;;;;;;5095187;28;20071;-67
2022/03/04 00:05:46;;;;;;;8.20;6.45;;;;;;;;;;5095120;28;20020;-67
2022/03/04 00:08:12;;;;;;;8.18;6.40;;;;;;;;;;5082120;28;20047;-67
2022/03/04 00:10:38;;;;;;;9.90;6.13;;;;;;;;;;5095853;28;20028;-67
2022/03/04 00:13:04;;;;;;;14.90;7.00;;;;;;;;;;5094503;28;20031;-67
2022/03/04 00:15:31;;;;;;;11.02;6.55;;;;;;;;;;5094575;28;20377;-67
2022/03/04 00:17:57;;;;;;;9.63;6.32;;;;;;;;;;5094511;28;20515;-66
2022/03/04 00:20:23;;;;;;;9.32;6.00;;;;;;;;;;5094494;28;20047;-66
2022/03/04 00:22:49;;;;;;;7.03;5.60;;;;;;;;;;5094276;28;20036;-66
2022/03/04 00:25:15;;;;;;;6.88;6.03;;;;;;;;;;5094574;28;20020;-66
2022/03/04 00:27:41;;;;;;;7.70;5.50;;;;;;;;;;5076139;28;20424;-67
2022/03/04 00:30:08;;;;;;;7.00;5.97;;;;;;;;;;5094378;28;20491;-66
2022/03/04 00:32:35;;;;;;;5.95;5.35;;;;;;;;;;5093753;28;20024;-67
2022/03/04 00:35:01;;;;;;;7.32;6.03;;;;;;;;;;5094480;28;20035;-67
2022/03/04 00:37:27;;;;;;;7.03;5.90;;;;;;;;;;5094365;28;20032;-67
2022/03/04 00:39:53;;;;;;;12.85;5.95;;;;;;;;;;5093173;28;20093;-67
2022/03/04 00:42:19;;;;;;;11.10;5.88;;;;;;;;;;5101136;28;20359;-68
2022/03/04 00:44:45;;;;;;;6.82;5.32;;;;;;;;;;5114812;28;20048;-67
2022/03/04 00:47:11;;;;;;;9.63;5.65;;;;;;;;;;5114728;28;20055;-68
2022/03/04 00:49:37;;;;;;;7.72;5.65;;;;;;;;;;5114648;28;20054;-68
2022/03/04 00:52:03;;;;;;;8.20;5.50;;;;;;;;;;5114402;28;20443;-67
2022/03/04 00:54:29;;;;;;;5.72;5.15;;;;;;;;;;5114273;28;20024;-67
2022/03/04 00:56:55;;;;;;;10.98;5.70;;;;;;;;;;5095765;28;20028;-68
2022/03/04 00:59:21;;;;;;;7.72;5.47;;;;;;;;;;5109164;28;20032;-68
2022/03/04 01:01:47;;;;;;;8.65;5.65;;;;;;;;;;5104017;28;20051;-68
2022/03/04 01:04:13;;;;;;;15.77;5.65;;;;;;;;;;5093505;28;20027;-67
2022/03/04 01:06:39;;;;;;;8.00;5.65;;;;;;;;;;5093981;28;20028;-67
2022/03/04 01:09:05;;;;;;;7.63;5.65;;;;;;;;;;5093238;28;20487;-68
2022/03/04 01:11:31;;;;;;;14.00;5.60;;;;;;;;;;5093740;28;20036;-68
2022/03/04 01:13:57;;;;;;;9.60;5.97;;;;;;;;;;5093900;28;20032;-69
2022/03/04 01:16:24;;;;;;;10.68;5.43;;;;;;;;;;5093712;28;20027;-68
2022/03/04 01:18:50;;;;;;;19.45;5.90;;;;;;;;;;5093838;28;20035;-69
2022/03/04 01:21:16;;;;;;;11.05;6.00;;;;;;;;;;5093110;28;20052;-68
2022/03/04 01:23:42;;;;;;;6.85;5.43;;;;;;;;;;5093207;28;20039;-68
2022/03/04 01:26:08;;;;;;;10.77;6.18;;;;;;;;;;5093370;28;20031;-68
2022/03/04 01:28:34;;;;;;;17.85;6.03;;;;;;;;;;5079243;28;20025;-67
2022/03/04 01:31:00;;;;;;;13.02;6.00;;;;;;;;;;5072617;28;20024;-68
2022/03/04 01:33:26;;;;;;;12.35;6.00;;;;;;;;;;5072957;28;20100;-68
2022/03/04 01:35:52;;;;;;;8.63;6.50;;;;;;;;;;5072883;28;20033;-69
2022/03/04 01:38:18;;;;;;;10.68;6.32;;;;;;;;;;5072947;28;20020;-68
2022/03/04 01:40:44;;;;;;;15.18;6.35;;;;;;;;;;5072750;28;20033;-69
2022/03/04 01:43:10;;;;;;;12.25;6.38;;;;;;;;;;5072006;28;20378;-68
2022/03/04 01:45:37;;;;;;;12.35;6.57;;;;;;;;;;5072634;28;20537;-68
2022/03/04 01:48:03;;;;;;;7.95;6.00;;;;;;;;;;5071986;28;20051;-68
2022/03/04 01:50:29;;;;;;;7.85;5.78;;;;;;;;;;5072548;28;20036;-70
2022/03/04 01:52:55;;;;;;;7.10;5.72;;;;;;;;;;5072368;28;20047;-68
2022/03/04 01:55:21;;;;;;;8.75;6.15;;;;;;;;;;5072661;28;20059;-69
2022/03/04 01:57:47;;;;;;;8.80;5.97;;;;;;;;;;5072352;28;20425;-67
2022/03/04 02:00:14;;;;;;;11.68;5.97;;;;;;;;;;5072439;28;20063;-68
2022/03/04 02:02:41;;;;;;;11.80;6.10;;;;;;;;;;5072325;28;20086;-68
2022/03/04 02:05:07;;;;;;;7.57;5.78;;;;;;;;;;5077300;28;20035;-68
2022/03/04 02:07:33;;;;;;;7.88;6.15;;;;;;;;;;5072119;28;20032;-68
2022/03/04 02:09:59;;;;;;;7.93;6.00;;;;;;;;;;5053593;28;20025;-68
2022/03/04 02:12:25;;;;;;;8.10;5.82;;;;;;;;;;5072105;28;20025;-69
2022/03/04 02:14:51;;;;;;;7.35;6.15;;;;;;;;;;5072255;28;20039;-67
2022/03/04 02:17:17;;;;;;;9.32;6.20;;;;;;;;;;5072653;28;20064;-66
2022/03/04 02:19:43;;;;;;;7.30;5.43;;;;;;;;;;5071159;28;20036;-68
2022/03/04 02:22:09;;;;;;;7.15;5.82;;;;;;;;;;5090650;28;20608;-67
2022/03/04 02:24:35;;;;;;;6.18;5.35;;;;;;;;;;5074699;28;20024;-67
2022/03/04 02:27:02;;;;;;;7.55;5.45;;;;;;;;;;5092185;28;20020;-68
2022/03/04 02:29:30;;;;;;;8.43;5.60;;;;;;;;;;5092337;28;20455;-67
2022/03/04 02:31:56;;;;;;;7.85;5.93;;;;;;;;;;5092237;28;20410;-68
2022/03/04 02:34:22;;;;;;;7.55;5.20;;;;;;;;;;5092189;28;20024;-68
2022/03/04 02:36:48;;;;;;;6.85;5.22;;;;;;;;;;5092206;28;20027;-68
2022/03/04 02:39:15;;;;;;;6.97;5.40;;;;;;;;;;5092182;28;20468;-67
2022/03/04 02:41:41;;;;;;;6.32;5.60;;;;;;;;;;5091946;28;20037;-68
2022/03/04 02:44:08;;;;;;;7.18;5.88;;;;;;;;;;5073738;28;20123;-69
2022/03/04 02:46:34;;;;;;;8.52;5.80;;;;;;;;;;5091777;28;20463;-68
2022/03/04 02:49:00;;;;;;;7.93;5.72;;;;;;;;;;5092069;28;20028;-68
2022/03/04 02:51:26;;;;;;;8.73;5.55;;;;;;;;;;5091900;28;20089;-68
2022/03/04 02:53:52;;;;;;;6.80;4.97;;;;;;;;;;5092617;28;20039;-68
2022/03/04 02:56:18;;;;;;;8.63;5.65;;;;;;;;;;5096471;28;20099;-68
2022/03/04 02:58:45;;;;;;;6.93;5.40;;;;;;;;;;5096177;28;20057;-68
2022/03/04 03:01:10;;;;;;;8.50;5.57;;;;;;;;;;5095810;28;20068;-68
2022/03/04 03:03:37;;;;;;;9.32;5.65;;;;;;;;;;5095281;28;20112;-68
2022/03/04 03:06:03;;;;;;;9.57;5.88;;;;;;;;;;5095870;28;20028;-68
2022/03/04 03:08:29;;;;;;;7.00;5.55;;;;;;;;;;5095525;28;20384;-68
2022/03/04 03:10:55;;;;;;;8.25;5.75;;;;;;;;;;5095861;28;20028;-68
2022/03/04 03:13:21;;;;;;;10.38;5.53;;;;;;;;;;5095260;28;20490;-69
2022/03/04 03:15:48;;;;;;;7.38;5.22;;;;;;;;;;5094939;28;20028;-69
2022/03/04 03:18:14;;;;;;;6.80;5.70;;;;;;;;;;5095939;28;20052;-69
2022/03/04 03:20:40;;;;;;;6.85;5.57;;;;;;;;;;5095511;28;20055;-67
2022/03/04 03:23:06;;;;;;;6.78;5.53;;;;;;;;;;5095683;28;20036;-67
2022/03/04 03:25:32;;;;;;;5.63;5.03;;;;;;;;;;5095826;28;20028;-69
2022/03/04 03:27:58;;;;;;;6.15;5.55;;;;;;;;;;5095650;28;20043;-69
2022/03/04 03:30:24;;;;;;;8.88;5.57;;;;;;;;;;5095847;28;20035;-69
2022/03/04 03:32:50;;;;;;;5.97;5.10;;;;;;;;;;5095393;28;20039;-69
2022/03/04 03:35:16;;;;;;;7.50;5.43;;;;;;;;;;5095613;28;20016;-68
2022/03/04 03:37:42;;;;;;;7.82;6.28;;;;;;;;;;5095534;28;20024;-69
2022/03/04 03:40:10;;;;;;;17.55;6.03;;;;;;;;;;5094192;28;20458;-69
2022/03/04 03:42:36;;;;;;;6.90;5.45;;;;;;;;;;5094986;28;20039;-68
2022/03/04 03:45:03;;;;;;;9.57;5.75;;;;;;;;;;5095435;28;20028;-68
2022/03/04 03:47:29;;;;;;;10.90;6.00;;;;;;;;;;5095304;28;20032;-69
2022/03/04 03:49:55;;;;;;;12.10;5.68;;;;;;;;;;5094301;28;20065;-67
2022/03/04 03:52:21;;;;;;;7.13;5.60;;;;;;;;;;5088882;28;20038;-66
2022/03/04 03:54:46;;;;;;;7.97;6.32;;;;;;;;;;5095403;28;20028;-67
2022/03/04 03:57:13;;;;;;;7.88;6.05;;;;;;;;;;5095155;28;20046;-68
2022/03/04 03:59:38;;;;;;;8.35;6.25;;;;;;;;;;5094837;28;20395;-68
2022/03/04 04:02:05;;;;;;;11.02;6.03;;;;;;;;;;5094249;28;20496;-68
2022/03/04 04:04:34;;;;;;;9.45;5.93;;;;;;;;;;5094781;28;20032;-67
2022/03/04 04:07:02;;;;;;;7.85;6.25;;;;;;;;;;5093062;28;20024;-67
2022/03/04 04:09:28;;;;;;;7.20;5.80;;;;;;;;;;5093846;28;20020;-68
2022/03/04 04:11:54;;;;;;;7.85;6.25;;;;;;;;;;5094324;28;20082;-68
2022/03/04 04:14:20;;;;;;;12.63;5.95;;;;;;;;;;5094621;28;20035;-69
2022/03/04 04:16:46;;;;;;;11.90;6.43;;;;;;;;;;5094604;28;20104;-69
2022/03/04 04:19:12;;;;;;;9.15;6.07;;;;;;;;;;5094693;28;20058;-69
2022/03/04 04:21:38;;;;;;;7.07;5.78;;;;;;;;;;5093478;28;20036;-69
2022/03/04 04:24:05;;;;;;;10.80;5.70;;;;;;;;;;5094521;28;20033;-68
2022/03/04 04:26:31;;;;;;;7.10;5.60;;;;;;;;;;5094681;28;20063;-68
2022/03/04 04:28:57;;;;;;;7.70;6.07;;;;;;;;;;5094393;28;20028;-67
2022/03/04 04:31:23;;;;;;;9.50;5.60;;;;;;;;;;5094056;28;20052;-67
2022/03/04 04:33:49;;;;;;;6.93;5.43;;;;;;;;;;5094466;28;20536;-68
2022/03/04 04:36:15;;;;;;;8.88;5.32;;;;;;;;;;5094467;28;20095;-68
2022/03/04 04:38:41;;;;;;;8.88;5.72;;;;;;;;;;5076207;28;20048;-68
2022/03/04 04:41:07;;;;;;;10.02;5.65;;;;;;;;;;5093940;28;20083;-69
2022/03/04 04:43:34;;;;;;;12.02;5.85;;;;;;;;;;5094278;28;20070;-68
2022/03/04 04:46:00;;;;;;;9.35;5.55;;;;;;;;;;5094011;28;20039;-68
2022/03/04 04:48:26;;;;;;;7.25;5.78;;;;;;;;;;5093454;28;20028;-67
2022/03/04 04:50:52;;;;;;;9.88;5.68;;;;;;;;;;5084255;28;20034;-68
2022/03/04 04:53:18;;;;;;;8.80;5.60;;;;;;;;;;5093946;28;20032;-67
2022/03/04 04:55:44;;;;;;;8.57;5.78;;;;;;;;;;5093992;28;20050;-68
2022/03/04 04:58:10;;;;;;;6.38;5.30;;;;;;;;;;5093743;28;20028;-67
2022/03/04 05:00:36;;;;;;;7.13;5.60;;;;;;;;;;5093766;28;20025;-68
2022/03/04 05:03:02;;;;;;;17.88;6.10;;;;;;;;;;5092998;28;20038;-68
2022/03/04 05:05:28;;;;;;;9.93;5.82;;;;;;;;;;5093622;28;20025;-68
2022/03/04 05:07:54;;;;;;;15.50;6.00;;;;;;;;;;5093967;28;20023;-68
2022/03/04 05:10:20;;;;;;;11.70;6.07;;;;;;;;;;5092828;28;20468;-68
2022/03/04 05:12:46;;;;;;;6.43;5.75;;;;;;;;;;5093489;28;20073;-69
2022/03/04 05:15:12;;;;;;;7.38;5.88;;;;;;;;;;5093659;28;20017;-68
2022/03/04 05:17:38;;;;;;;8.82;6.22;;;;;;;;;;5093504;28;20112;-68
2022/03/04 05:20:05;;;;;;;8.32;6.13;;;;;;;;;;5092983;28;20107;-68
2022/03/04 05:22:31;;;;;;;7.75;5.97;;;;;;;;;;5082939;28;20036;-67
2022/03/04 05:24:57;;;;;;;8.43;6.05;;;;;;;;;;5093640;28;20085;-68
2022/03/04 05:27:23;;;;;;;8.82;5.63;;;;;;;;;;5093559;28;20038;-69
2022/03/04 05:29:49;;;;;;;8.23;5.53;;;;;;;;;;5093510;28;20039;-68
2022/03/04 05:32:15;;;;;;;8.68;5.55;;;;;;;;;;5093194;28;20379;-67
2022/03/04 05:34:41;;;;;;;7.07;5.88;;;;;;;;;;5093201;28;20061;-68
2022/03/04 05:37:08;;;;;;;6.65;5.63;;;;;;;;;;5092896;28;20036;-67
2022/03/04 05:39:34;;;;;;;8.73;6.00;;;;;;;;;;5092826;28;20028;-66
2022/03/04 05:42:00;;;;;;;7.28;6.15;;;;;;;;;;5092936;28;20437;-67
2022/03/04 05:44:26;;;;;;;10.25;6.28;;;;;;;;;;5093069;28;20064;-67
2022/03/04 05:46:52;;;;;;;8.80;5.38;;;;;;;;;;5091709;28;20066;-67
2022/03/04 05:49:18;;;;;;;8.27;5.97;;;;;;;;;;5092974;28;20035;-67
2022/03/04 05:51:43;;;;;;;8.38;6.05;;;;;;;;;;5096101;28;20019;-67
2022/03/04 05:54:09;;;;;;;7.07;5.90;;;;;;;;;;5088819;28;20024;-68
2022/03/04 05:56:35;;;;;;;6.18;5.50;;;;;;;;;;5092721;28;20075;-68
2022/03/04 05:59:02;;;;;;;10.25;6.45;;;;;;;;;;5092716;28;20027;-68
2022/03/04 06:01:28;;;;;;;9.65;6.13;;;;;;;;;;5092425;28;20031;-67
2022/03/04 06:03:54;;;;;;;7.72;5.57;;;;;;;;;;5092680;28;20020;-67
2022/03/04 06:06:20;;;;;;;7.65;6.32;;;;;;;;;;5092600;28;20072;-67
2022/03/04 06:08:48;;;;;;;10.68;6.55;;;;;;;;;;5091575;28;20055;-68
2022/03/04 06:11:15;;;;;;;8.00;6.15;;;;;;;;;;5092252;28;20054;-67
2022/03/04 06:13:41;;;;;;;16.45;10.00;;;;;;;;;;5091320;28;20030;-69
2022/03/04 06:16:07;;;;;;;13.27;8.88;;;;;;;;;;5092550;28;20383;-68
2022/03/04 06:18:34;;;;;;;19.60;11.00;;;;;;;;;;5092465;28;20023;-69
2022/03/04 06:21:00;;;;;;;18.27;10.13;;;;;;;;;;5101503;28;20048;-69
2022/03/04 06:23:25;;;;;;;14.88;11.38;;;;;;;;;;5112545;28;20040;-68
2022/03/04 06:25:51;;;;;;;15.75;11.10;;;;;;;;;;5112681;28;20076;-69
2022/03/04 06:28:17;;;;;;;16.13;11.15;;;;;;;;;;5112709;28;20042;-69
2022/03/04 06:30:44;;;;;;;16.95;11.30;;;;;;;;;;5112147;28;20016;-70
2022/03/04 06:35:54;;;;;;;24.00;12.90;;;;;;;;;;5101600;28;20573;-69
2022/03/04 06:38:21;;;;;;;17.23;11.95;;;;;;;;;;5080693;28;20344;-69
2022/03/04 06:40:48;;;;;;;22.20;12.50;;;;;;;;;;5091763;28;20252;-68
2022/03/04 06:43:14;;;;;;;16.85;11.73;;;;;;;;;;5112648;28;20463;-69
2022/03/04 06:45:41;;;;;;;21.02;10.30;;;;;;;;;;5093482;28;20089;-67
2022/03/04 06:48:07;;;;;;;23.00;10.85;;;;;;;;;;5092129;28;20028;-69
2022/03/04 06:50:33;;;;;;;17.83;12.05;;;;;;;;;;5073444;28;20110;-66
2022/03/04 06:52:59;;;;;;;31.85;11.07;;;;;;;;;;5096912;28;20685;-67
2022/03/04 06:55:26;;;;;;;17.90;12.40;;;;;;;;;;5106585;28;20032;-68
2022/03/04 06:57:54;;;;;;;21.92;11.30;;;;;;;;;;5080928;28;20031;-67
2022/03/04 07:00:21;;;;;;;16.65;11.95;;;;;;;;;;5095106;28;20040;-67
2022/03/04 07:02:47;;;;;;;15.30;11.23;;;;;;;;;;5092938;28;20101;-67
2022/03/04 07:05:14;;;;;;;19.38;11.57;;;;;;;;;;5092569;28;20023;-67
2022/03/04 07:07:41;;;;;;;19.65;13.25;;;;;;;;;;5090904;28;20028;-68
2022/03/04 07:10:08;;;;;;;17.02;11.50;;;;;;;;;;5071627;28;20119;-68
2022/03/04 07:12:34;;;;;;;16.88;11.85;;;;;;;;;;5090478;28;20031;-67
2022/03/04 07:15:00;;;;;;;15.70;11.43;;;;;;;;;;5100509;28;20019;-67
2022/03/04 07:17:26;;;;;;;16.90;9.95;;;;;;;;;;5094712;28;20490;-68
2022/03/04 07:19:52;;;;;;;15.13;10.68;;;;;;;;;;5096174;28;20016;-70
2022/03/04 07:22:18;;;;;;;15.15;11.23;;;;;;;;;;5091400;28;20425;-70
2022/03/04 07:24:44;;;;;;;31.73;11.30;;;;;;;;;;5090992;28;20477;-67
2022/03/04 07:27:10;;;;;;;27.45;11.45;;;;;;;;;;5090749;28;20035;-67
2022/03/04 07:29:36;;;;;;;19.35;11.18;;;;;;;;;;5090142;28;20059;-67
2022/03/04 07:32:02;;;;;;;23.58;11.52;;;;;;;;;;5090696;28;20024;-67
2022/03/04 07:34:28;;;;;;;19.27;11.50;;;;;;;;;;5091006;28;20047;-66
2022/03/04 07:36:54;;;;;;;20.73;11.07;;;;;;;;;;5072380;28;20176;-67
2022/03/04 07:39:20;;;;;;;17.35;11.23;;;;;;;;;;5097503;28;20511;-65
2022/03/04 07:41:51;;;;;;;16.65;10.68;;;;;;;;;;5057896;28;20071;-67
2022/03/04 07:44:17;;;;;;;27.17;11.23;;;;;;;;;;5068437;28;20035;-66
2022/03/04 07:46:43;;;;;;;20.95;11.50;;;;;;;;;;5094627;28;20019;-65
2022/03/04 07:49:09;;;;;;;25.23;11.68;;;;;;;;;;5094839;28;20126;-67
2022/03/04 07:51:35;;;;;;;24.33;10.73;;;;;;;;;;5091806;28;20425;-68
2022/03/04 07:54:01;;;;;;;29.95;10.63;;;;;;;;;;5094143;28;20031;-69
2022/03/04 07:56:27;;;;;;;21.70;10.63;;;;;;;;;;5102263;28;20028;-70
2022/03/04 07:58:53;;;;;;;27.35;10.55;;;;;;;;;;5090789;28;20048;-69
2022/03/04 08:01:19;;;;;;;17.10;10.77;;;;;;;;;;5094360;28;20035;-69
2022/03/04 08:03:46;;;;;;;17.80;10.38;;;;;;;;;;5095003;28;20040;-69
2022/03/04 08:06:12;;;;;;;16.85;10.35;;;;;;;;;;5095125;28;20031;-66
2022/03/04 08:08:38;;;;;;;16.52;11.32;;;;;;;;;;5094802;28;20032;-69
2022/03/04 08:11:05;;;;;;;20.13;11.30;;;;;;;;;;5099409;28;20024;-69
2022/03/04 08:13:31;;;;;;;18.90;11.63;;;;;;;;;;5097918;28;20028;-70
2022/03/04 08:15:58;;;;;;;19.88;11.38;;;;;;;;;;5094987;28;20100;-69
2022/03/04 08:18:24;;;;;;;18.23;11.82;;;;;;;;;;5076595;28;20027;-68
2022/03/04 08:20:50;;;;;;;19.88;11.35;;;;;;;;;;5094671;28;20105;-67
2022/03/04 08:23:17;;;;;;;15.43;11.02;;;;;;;;;;5094686;28;20493;-67
2022/03/04 08:25:44;;;;;;;17.20;11.40;;;;;;;;;;5093775;28;20039;-69
2022/03/04 08:28:13;;;;;;;18.08;12.40;;;;;;;;;;5094610;28;20020;-66
2022/03/04 08:30:39;;;;;;;18.85;11.68;;;;;;;;;;5094262;28;20030;-68
2022/03/04 08:33:05;;;;;;;18.65;11.57;;;;;;;;;;5094088;28;20040;-66
2022/03/04 08:35:31;;;;;;;16.80;11.13;;;;;;;;;;5094138;28;20052;-67
2022/03/04 08:37:57;;;;;;;18.13;11.25;;;;;;;;;;5094275;28;20082;-69
2022/03/04 08:40:23;;;;;;;16.63;12.00;;;;;;;;;;5093658;28;20076;-67
2022/03/04 08:42:50;;;;;;;20.88;11.60;;;;;;;;;;5078533;28;20032;-70
2022/03/04 08:45:16;;;;;;;22.63;11.88;;;;;;;;;;5093646;28;20390;-68
2022/03/04 08:47:44;;;;;;;17.88;11.68;;;;;;;;;;5094430;28;20017;-70
2022/03/04 08:50:10;;;;;;;24.17;11.75;;;;;;;;;;5094866;28;20040;-69
2022/03/04 08:52:36;;;;;;;43.70;12.18;;;;;;;;;;5094090;28;20438;-70
2022/03/04 08:55:03;;;;;;;22.35;11.85;;;;;;;;;;5095027;28;20020;-70
2022/03/04 08:57:30;;;;;;;27.65;11.75;;;;;;;;;;5093782;28;20066;-67
2022/03/04 08:59:56;;;;;;;16.75;11.85;;;;;;;;;;5093792;28;20103;-68
2022/03/04 09:02:22;;;;;;;21.45;11.45;;;;;;;;;;5093665;28;20590;-68
2022/03/04 09:04:48;;;;;;;19.77;11.88;;;;;;;;;;5094315;28;20049;-70
2022/03/04 09:07:14;;;;;;;17.63;12.63;;;;;;;;;;5094111;28;20063;-67
2022/03/04 09:09:40;;;;;;;20.38;12.65;;;;;;;;;;5093221;28;20013;-69
2022/03/04 09:12:07;;;;;;;20.88;12.98;;;;;;;;;;5093414;28;20476;-68
2022/03/04 09:14:33;;;;;;;21.02;12.90;;;;;;;;;;5092989;28;20506;-70
2022/03/04 09:16:59;;;;;;;22.02;13.15;;;;;;;;;;5093399;28;20059;-69
2022/03/04 09:19:25;;;;;;;18.88;13.40;;;;;;;;;;5075361;28;20028;-71
2022/03/04 09:21:51;;;;;;;21.05;13.65;;;;;;;;;;5088276;28;20039;-71
2022/03/04 09:24:17;;;;;;;20.33;13.75;;;;;;;;;;5093926;28;20032;-70
2022/03/04 09:26:43;;;;;;;23.63;13.32;;;;;;;;;;5093676;28;20088;-69
2022/03/04 09:29:09;;;;;;;18.13;13.60;;;;;;;;;;5093644;28;20105;-69
2022/03/04 09:31:35;;;;;;;22.55;14.90;;;;;;;;;;5093251;28;20024;-68
2022/03/04 09:34:02;;;;;;;18.65;13.68;;;;;;;;;;5093715;28;20039;-68
2022/03/04 09:36:28;;;;;;;22.45;14.35;;;;;;;;;;5093332;28;20032;-68
2022/03/04 09:38:54;;;;;;;23.15;15.05;;;;;;;;;;5093037;28;20024;-69
2022/03/04 09:41:20;;;;;;;25.63;15.90;;;;;;;;;;5092241;28;20053;-69
2022/03/04 09:43:46;;;;;;;21.92;13.45;;;;;;;;;;5093453;28;20028;-72
2022/03/04 09:46:13;;;;;;;22.88;13.48;;;;;;;;;;5093472;28;20020;-71
2022/03/04 09:48:42;;;;;;;24.20;14.45;;;;;;;;;;5093785;28;20111;-72
2022/03/04 09:51:08;;;;;;;20.98;13.90;;;;;;;;;;5093774;28;20365;-72
2022/03/04 09:53:35;;;;;;;23.00;13.77;;;;;;;;;;5092324;28;20020;-69
2022/03/04 09:56:01;;;;;;;20.33;13.43;;;;;;;;;;5093503;28;20078;-72
2022/03/04 09:58:27;;;;;;;23.67;14.55;;;;;;;;;;5093242;28;20024;-70
2022/03/04 10:00:53;;;;;;;22.23;13.88;;;;;;;;;;5093094;28;20085;-71
2022/03/04 10:03:31;;;;;;;20.25;14.57;;;;;;;;;;5092126;28;20044;-67
2022/03/04 10:05:59;;;;;;;23.73;14.32;;;;;;;;;;5092622;28;20034;-69
2022/03/04 10:08:26;;;;;;;19.58;14.05;;;;;;;;;;5092313;28;20035;-72
2022/03/04 10:10:53;;;;;;;28.58;15.15;;;;;;;;;;5074592;28;20494;-71
2022/03/04 10:13:39;;;;;;;21.05;14.25;;;;;;;;;;5092678;28;20089;-67
2022/03/04 10:16:05;;;;;;;22.30;14.20;;;;;;;;;;5091846;28;20024;-68
2022/03/04 10:18:31;;;;;;;23.20;14.63;;;;;;;;;;5092561;28;20027;-69
2022/03/04 10:20:57;;;;;;;22.17;14.63;;;;;;;;;;5100287;28;20048;-70
2022/03/04 10:23:25;;;;;;;23.92;14.50;;;;;;;;;;5112339;28;20134;-68
2022/03/04 10:25:52;;;;;;;20.27;14.73;;;;;;;;;;5094511;28;20024;-68
2022/03/04 10:28:19;;;;;;;24.75;16.27;;;;;;;;;;5112908;28;20118;-67
2022/03/04 10:30:47;;;;;;;20.30;14.80;;;;;;;;;;5112404;28;20546;-68
2022/03/04 10:33:15;;;;;;;21.52;15.13;;;;;;;;;;5094302;28;20020;-70
2022/03/04 10:35:41;;;;;;;26.35;15.80;;;;;;;;;;5103102;28;20479;-69
2022/03/04 10:38:07;;;;;;;22.95;16.15;;;;;;;;;;5092442;28;20028;-69
2022/03/04 10:40:35;;;;;;;21.23;14.65;;;;;;;;;;5091596;28;20460;-68
2022/03/04 10:43:05;;;;;;;23.35;14.80;;;;;;;;;;5074090;28;20063;-69
2022/03/04 10:45:31;;;;;;;21.17;15.48;;;;;;;;;;5092365;28;20017;-69
2022/03/04 10:47:58;;;;;;;22.58;14.70;;;;;;;;;;5092276;28;20024;-72
2022/03/04 10:50:33;;;;;;;26.10;14.98;;;;;;;;;;5075087;28;20073;-71
2022/03/04 10:53:01;;;;;;;22.27;14.90;;;;;;;;;;5092288;28;20023;-72
2022/03/04 10:55:38;;;;;;;23.10;14.52;;;;;;;;;;5092672;28;20020;-71
2022/03/04 10:58:05;;;;;;;26.10;14.77;;;;;;;;;;5091934;28;20060;-68
2022/03/04 11:00:36;;;;;;;21.30;14.05;;;;;;;;;;5074106;28;20020;-69
2022/03/04 11:03:03;;;;;;;23.05;13.90;;;;;;;;;;5093301;28;20059;-68
2022/03/04 11:05:29;;;;;;;20.42;13.75;;;;;;;;;;5091788;28;20028;-70
2022/03/04 11:07:55;;;;;;;21.58;13.88;;;;;;;;;;5091316;28;20020;-68
2022/03/04 11:10:22;;;;;;;20.10;13.15;;;;;;;;;;5090361;28;20123;-69
2022/03/04 11:12:53;;;;;;;21.73;14.00;;;;;;;;;;5090932;28;20034;-72
2022/03/04 11:15:20;;;;;;;28.13;14.55;;;;;;;;;;5092607;28;20049;-70
2022/03/04 11:17:46;;;;;;;45.85;13.77;;;;;;;;;;5077602;28;20106;-75
2022/03/04 11:20:13;;;;;;;45.45;14.13;;;;;;;;;;5095975;28;20030;-71
2022/03/04 11:22:40;;;;;;;65.72;15.50;;;;;;;;;;5095008;28;20097;-68
2022/03/04 11:25:08;;;;;;;41.45;12.90;;;;;;;;;;5095697;28;20038;-67
2022/03/04 11:27:35;;;;;;;64.10;14.23;;;;;;;;;;5096002;28;20028;-71
2022/03/04 11:30:02;;;;;;;85.43;14.82;;;;;;;;;;5077520;28;20034;-70
2022/03/04 11:32:31;;;;;;;51.33;14.40;;;;;;;;;;5095674;28;20019;-69
2022/03/04 11:34:57;;;;;;;48.42;14.07;;;;;;;;;;5095789;28;20028;-68
2022/03/04 11:37:23;;;;;;;33.28;13.45;;;;;;;;;;5076009;28;20020;-68
2022/03/04 11:40:01;;;;;;;36.92;13.98;;;;;;;;;;5094803;28;20435;-67
2022/03/04 11:42:35;;;;;;;24.30;14.23;;;;;;;;;;5095001;28;20368;-67
2022/03/04 11:45:02;;;;;;;39.00;14.65;;;;;;;;;;5077162;28;20016;-72
2022/03/04 11:47:29;;;;;;;23.33;13.77;;;;;;;;;;5095461;28;20023;-70
2022/03/04 11:49:55;;;;;;;26.17;14.55;;;;;;;;;;5095376;28;20059;-70
2022/03/04 11:52:26;;;;;;;24.52;13.88;;;;;;;;;;5094717;28;20069;-71
2022/03/04 11:54:52;;;;;;;25.92;13.75;;;;;;;;;;5076936;28;20028;-71
2022/03/04 11:57:27;;;;;;;23.33;13.50;;;;;;;;;;5095104;28;20012;-71
2022/03/04 11:59:53;;;;;;;19.42;13.50;;;;;;;;;;5076818;28;20028;-71
2022/03/04 12:02:38;;;;;;;19.30;13.43;;;;;;;;;;5077015;28;20088;-71
2022/03/04 12:05:13;;;;;;;21.75;13.52;;;;;;;;;;5077036;28;20035;-71
2022/03/04 12:07:41;;;;;;;19.95;13.35;;;;;;;;;;5076862;28;20035;-70
2022/03/04 12:10:08;;;;;;;20.02;13.73;;;;;;;;;;5094677;28;20126;-70
2022/03/04 12:12:34;;;;;;;21.75;13.77;;;;;;;;;;5094768;28;20032;-70
2022/03/04 12:15:16;;;;;;;21.05;13.35;;;;;;;;;;5095214;28;20146;-70
2022/03/04 12:18:05;;;;;;;29.83;14.38;;;;;;;;;;5094360;28;20039;-71
2022/03/04 12:20:40;;;;;;;19.38;13.88;;;;;;;;;;5112149;28;20043;-71
2022/03/04 12:23:10;;;;;;;18.42;13.90;;;;;;;;;;5115056;28;20035;-70
2022/03/04 12:25:57;;;;;;;21.65;13.82;;;;;;;;;;5109509;28;20417;-70
2022/03/04 12:28:41;;;;;;;24.77;13.88;;;;;;;;;;5094176;28;20097;-69
2022/03/04 12:31:13;;;;;;;23.63;14.15;;;;;;;;;;5076678;28;20052;-71
2022/03/04 12:33:40;;;;;;;23.20;14.57;;;;;;;;;;5094700;28;20082;-70
2022/03/04 12:36:08;;;;;;;19.65;14.10;;;;;;;;;;5076614;28;20046;-70
2022/03/04 12:38:41;;;;;;;30.13;13.82;;;;;;;;;;5076251;28;20119;-70
2022/03/04 12:41:14;;;;;;;;;;;;;;;;;;5094057;28;20038;-69
2022/03/04 12:43:40;;;;;;;26.63;12.63;;;;;;;;;;5094520;28;19916;-69
2022/03/04 12:46:06;;;;;;;21.38;13.48;;;;;;;;;;5094413;28;20077;-69
2022/03/04 12:48:32;;;;;;;19.70;13.10;;;;;;;;;;5076002;28;20032;-70
2022/03/04 12:50:59;;;;;;;20.83;13.25;;;;;;;;;;5093936;28;20026;-72
2022/03/04 12:53:27;;;;;;;21.77;13.75;;;;;;;;;;5076061;28;20054;-68
2022/03/04 12:55:56;;;;;;;22.05;13.07;;;;;;;;;;5075206;28;20556;-65
2022/03/04 12:58:34;;;;;;;33.10;14.07;;;;;;;;;;5075705;28;20047;-66
2022/03/04 13:01:02;;;;;;;26.50;14.85;;;;;;;;;;5075606;28;20395;-69
2022/03/04 13:03:28;;;;;;;26.83;14.20;;;;;;;;;;5094030;28;20024;-70
2022/03/04 13:05:54;;;;;;;21.30;14.55;;;;;;;;;;5094136;28;20736;-70
2022/03/04 13:08:20;;;;;;;21.20;14.43;;;;;;;;;;5075412;28;20659;-69
2022/03/04 13:10:47;;;;;;;23.30;13.80;;;;;;;;;;5093367;28;20468;-72
2022/03/04 13:13:13;;;;;;;23.45;13.38;;;;;;;;;;5055609;28;20044;-67
2022/03/04 13:15:45;;;;;;;19.70;13.52;;;;;;;;;;5073409;28;20668;-67
2022/03/04 13:18:11;;;;;;;20.63;13.85;;;;;;;;;;5084441;28;20028;-66
2022/03/04 13:20:37;;;;;;;21.65;13.35;;;;;;;;;;5092223;28;20115;-68
2022/03/04 13:23:07;;;;;;;21.65;14.65;;;;;;;;;;5077586;28;20041;-64
2022/03/04 13:25:33;;;;;;;24.05;14.23;;;;;;;;;;5073089;28;20070;-67
2022/03/04 13:27:59;;;;;;;25.60;14.80;;;;;;;;;;5072963;28;20118;-67
2022/03/04 13:30:25;;;;;;;22.33;14.88;;;;;;;;;;5054566;28;20069;-68
2022/03/04 13:32:55;;;;;;;22.80;15.18;;;;;;;;;;5072691;28;20507;-67
2022/03/04 13:35:24;;;;;;;22.20;16.08;;;;;;;;;;5073208;28;20016;-68
2022/03/04 13:37:50;;;;;;;24.00;14.80;;;;;;;;;;5054868;28;20025;-69
2022/03/04 13:40:24;;;;;;;23.80;14.93;;;;;;;;;;5072322;28;20552;-68
2022/03/04 13:42:52;;;;;;;26.55;15.20;;;;;;;;;;5072670;28;20524;-67
2022/03/04 13:45:38;;;;;;;24.90;16.40;;;;;;;;;;5073160;28;20027;-69
2022/03/04 13:48:05;;;;;;;31.88;17.15;;;;;;;;;;5077038;28;20111;-66
2022/03/04 13:50:37;;;;;;;23.02;15.98;;;;;;;;;;5084563;28;20051;-75
2022/03/04 13:53:13;;;;;;;20.40;14.83;;;;;;;;;;5073279;28;20506;-71
2022/03/04 13:55:39;;;;;;;26.13;14.15;;;;;;;;;;5055535;28;20028;-74
2022/03/04 13:58:12;;;;;;;21.65;14.57;;;;;;;;;;5073263;28;20016;-74
2022/03/04 14:00:40;;;;;;;33.80;14.13;;;;;;;;;;5088127;28;20067;-66
2022/03/04 14:03:07;;;;;;;31.40;14.70;;;;;;;;;;5089032;28;20043;-68
2022/03/04 14:05:34;;;;;;;34.72;14.10;;;;;;;;;;5082427;28;20099;-67
2022/03/04 14:08:08;;;;;;;19.77;14.05;;;;;;;;;;5079542;28;20028;-67
2022/03/04 14:10:35;;;;;;;24.90;13.65;;;;;;;;;;5075519;28;20028;-66
2022/03/04 14:13:03;;;;;;;27.98;14.02;;;;;;;;;;5079989;28;20028;-66
2022/03/04 14:15:29;;;;;;;34.53;13.27;;;;;;;;;;5080030;28;20468;-66
2022/03/04 14:17:56;;;;;;;24.40;13.40;;;;;;;;;;5065809;28;20099;-66
2022/03/04 14:20:23;;;;;;;20.30;13.00;;;;;;;;;;5083760;28;20020;-68
2022/03/04 14:22:49;;;;;;;22.23;13.95;;;;;;;;;;5091461;28;20503;-67
2022/03/04 14:25:16;;;;;;;20.73;13.20;;;;;;;;;;5092352;28;20062;-67
2022/03/04 14:27:43;;;;;;;24.77;12.80;;;;;;;;;;5074062;28;20031;-66